Time;durP1;ratioP1;P1;durP2;ratioP2;P2;SDS_P1;SDS_P2;PMS_P1;PMS_P2;Temp;Humidity;BMP_temperature;BMP_pressure;BME280_temperature;BME280_humidity;BME280_pressure;Samples;Min_cycle;Max_cycle;Signal;HPM_P1;HPM_P2
2022/11/10 00:01:11;;;;;;;3.67;1.30;;;9.10;99.90;;;;;;6125788;19;19946;-66
2022/11/10 00:03:15;;;;;;;8.15;1.55;;;9.10;99.90;;;;;;6125894;19;19915;-66
2022/11/10 00:05:19;;;;;;;8.05;1.48;;;9.20;99.90;;;;;;6125968;19;20368;-66
2022/11/10 00:07:26;;;;;;;5.90;1.67;;;9.20;99.90;;;;;;6125657;19;20375;-66
2022/11/10 00:09:30;;;;;;;4.80;1.30;;;9.10;99.90;;;;;;6125595;19;19915;-67
2022/11/10 00:11:36;;;;;;;6.57;1.95;;;9.00;99.90;;;;;;6125523;19;19914;-67
2022/11/10 00:16:59;;;;;;;7.50;1.90;;;8.90;99.90;;;;;;6125150;19;19923;-67
2022/11/10 00:18:23;;;;;;;7.30;1.65;;;9.10;99.90;;;;;;6127030;19;19914;-67
2022/11/10 00:20:27;;;;;;;2.67;1.17;;;8.90;99.90;;;;;;6123777;19;19914;-67
2022/11/10 00:22:31;;;;;;;10.82;1.42;;;9.00;99.90;;;;;;6125270;19;20288;-67
2022/11/10 00:24:35;;;;;;;5.68;1.60;;;9.20;99.90;;;;;;6128785;19;19919;-67
2022/11/10 00:26:41;;;;;;;5.25;1.33;;;9.00;99.90;;;;;;6125427;19;19915;-67
2022/11/10 00:28:46;;;;;;;6.03;1.40;;;9.00;99.90;;;;;;6125160;19;19938;-67
2022/11/10 00:30:50;;;;;;;6.63;1.67;;;9.10;99.90;;;;;;6122774;19;19918;-67
2022/11/10 00:32:54;;;;;;;5.28;1.52;;;9.10;99.90;;;;;;6127558;19;19910;-67
2022/11/10 00:34:58;;;;;;;13.15;1.80;;;9.00;99.90;;;;;;6126524;19;19934;-67
2022/11/10 00:37:02;;;;;;;6.95;1.95;;;;;;;;;;6124105;19;19918;-67
2022/11/10 00:39:06;;;;;;;5.95;2.00;;;8.80;99.90;;;;;;6128359;19;19918;-67
2022/11/10 00:41:10;;;;;;;5.47;1.80;;;8.90;99.90;;;;;;6123746;19;19915;-66
2022/11/10 00:43:16;;;;;;;8.20;2.25;;;8.80;99.90;;;;;;6124508;19;19922;-67
2022/11/10 00:45:20;;;;;;;3.67;1.42;;;8.90;99.90;;;;;;6125041;19;20268;-67
2022/11/10 00:47:24;;;;;;;4.50;1.95;;;9.00;99.90;;;;;;6124513;19;19922;-67
2022/11/10 00:49:28;;;;;;;9.50;2.65;;;;;;;;;;6127647;19;19914;-67
2022/11/10 00:51:32;;;;;;;9.63;2.40;;;8.80;99.90;;;;;;6125862;19;19942;-67
2022/11/10 00:53:36;;;;;;;5.82;2.30;;;8.80;99.90;;;;;;6133286;19;19938;-67
2022/11/10 00:55:41;;;;;;;8.95;2.53;;;8.80;99.90;;;;;;6130535;19;19922;-67
2022/11/10 00:57:45;;;;;;;6.65;2.40;;;9.00;99.90;;;;;;6129827;19;20864;-67
2022/11/10 00:59:51;;;;;;;10.25;2.10;;;8.60;99.90;;;;;;6131827;19;19915;-67
2022/11/10 01:01:55;;;;;;;7.43;1.83;;;8.60;99.90;;;;;;6128290;19;19915;-67
2022/11/10 01:03:59;;;;;;;9.63;2.38;;;8.80;99.90;;;;;;6130048;19;20377;-66
2022/11/10 01:06:06;;;;;;;5.70;2.03;;;8.60;99.90;;;;;;6130627;19;20348;-67
2022/11/10 01:08:10;;;;;;;8.00;2.92;;;8.80;99.90;;;;;;6129799;19;20321;-67
2022/11/10 01:10:15;;;;;;;6.00;2.22;;;;;;;;;;6133067;19;19915;-67
2022/11/10 01:12:18;;;;;;;7.70;2.47;;;8.60;99.90;;;;;;6130083;19;19947;-67
2022/11/10 01:14:22;;;;;;;6.68;2.35;;;8.60;99.90;;;;;;6130498;19;19922;-67
2022/11/10 01:16:32;;;;;;;8.57;2.35;;;8.50;99.90;;;;;;6130179;19;19919;-66
2022/11/10 01:18:36;;;;;;;5.13;2.28;;;8.50;99.90;;;;;;6129749;19;19910;-66
2022/11/10 01:20:40;;;;;;;10.05;1.98;;;8.50;99.90;;;;;;6127247;19;19946;-66
2022/11/10 01:22:44;;;;;;;9.15;3.60;;;8.50;99.90;;;;;;6128816;19;20129;-66
2022/11/10 01:24:48;;;;;;;14.18;3.80;;;;;;;;;;6129506;19;20249;-67
2022/11/10 01:26:52;;;;;;;14.45;2.78;;;8.60;99.90;;;;;;6132030;19;20261;-67
2022/11/10 01:28:56;;;;;;;9.80;2.55;;;8.60;99.90;;;;;;6129685;19;19950;-67
2022/11/10 01:31:00;;;;;;;5.03;2.10;;;;;;;;;;6122663;19;20022;-67
2022/11/10 01:33:07;;;;;;;6.95;2.53;;;8.50;99.90;;;;;;6131982;19;19918;-67
2022/11/10 01:35:11;;;;;;;8.10;2.55;;;8.40;99.90;;;;;;6129631;19;20321;-67
2022/11/10 01:37:15;;;;;;;9.77;2.40;;;8.70;99.90;;;;;;6128695;19;19915;-66
2022/11/10 01:39:19;;;;;;;7.15;2.17;;;8.50;99.90;;;;;;6130132;19;19942;-67
2022/11/10 01:41:23;;;;;;;8.05;2.45;;;8.50;99.90;;;;;;6129396;19;19923;-67
2022/11/10 01:43:28;;;;;;;7.10;3.88;;;8.50;99.90;;;;;;6130656;19;19946;-67
2022/11/10 01:45:50;;;;;;;9.57;2.80;;;8.40;99.90;;;;;;6130080;19;19918;-67
2022/11/10 01:47:57;;;;;;;11.82;2.17;;;8.20;99.90;;;;;;6132632;19;19911;-67
2022/11/10 01:50:03;;;;;;;8.90;2.97;;;8.50;99.90;;;;;;6129789;19;19974;-66
2022/11/10 01:52:11;;;;;;;10.02;2.42;;;8.80;99.90;;;;;;6130387;19;19914;-66
2022/11/10 01:54:20;;;;;;;12.98;3.63;;;8.40;99.90;;;;;;6131303;19;19918;-66
2022/11/10 01:56:27;;;;;;;10.48;2.80;;;8.50;99.90;;;;;;6130699;19;19914;-67
2022/11/10 01:58:38;;;;;;;9.65;2.65;;;8.70;99.90;;;;;;6128785;19;19919;-67
2022/11/10 02:00:42;;;;;;;9.27;3.10;;;8.80;99.90;;;;;;6130945;19;19922;-67
2022/11/10 02:02:51;;;;;;;8.27;2.15;;;8.30;99.90;;;;;;6129015;19;19926;-67
2022/11/10 02:04:56;;;;;;;13.55;2.83;;;8.70;99.90;;;;;;6127944;19;19923;-66
2022/11/10 02:07:03;;;;;;;7.43;2.75;;;8.30;99.90;;;;;;6128199;19;20541;-67
2022/11/10 02:09:06;;;;;;;16.88;3.05;;;8.10;99.90;;;;;;6128474;19;19922;-66
2022/11/10 02:11:10;;;;;;;7.95;2.78;;;8.60;99.90;;;;;;6128662;19;20384;-66
2022/11/10 02:13:14;;;;;;;7.72;2.75;;;8.60;99.90;;;;;;6128470;19;19965;-66
2022/11/10 02:15:19;;;;;;;14.23;3.28;;;8.40;99.90;;;;;;6127594;19;20364;-66
2022/11/10 02:17:23;;;;;;;8.63;2.42;;;8.30;99.90;;;;;;6129675;19;19922;-66
2022/11/10 02:19:28;;;;;;;12.95;2.80;;;8.20;99.90;;;;;;6128533;19;20292;-66
2022/11/10 02:21:34;;;;;;;12.43;3.75;;;8.40;99.90;;;;;;6128211;19;20288;-66
2022/11/10 02:23:47;;;;;;;10.40;3.30;;;8.00;99.90;;;;;;6127595;19;19915;-67
2022/11/10 02:25:51;;;;;;;5.75;2.70;;;8.20;99.90;;;;;;6127332;19;19985;-66
2022/11/10 02:27:55;;;;;;;9.13;2.83;;;8.60;99.90;;;;;;6126462;19;19918;-66
2022/11/10 02:30:00;;;;;;;8.55;3.00;;;8.40;99.90;;;;;;6128431;19;19919;-67
2022/11/10 02:32:04;;;;;;;9.13;2.97;;;8.30;99.90;;;;;;6128661;19;20553;-67
2022/11/10 02:34:08;;;;;;;7.65;3.92;;;8.70;99.90;;;;;;6129017;19;19919;-67
2022/11/10 02:36:12;;;;;;;9.50;3.00;;;8.40;99.90;;;;;;6128309;19;20344;-67
2022/11/10 02:38:19;;;;;;;10.80;3.25;;;8.60;99.90;;;;;;6129539;19;20376;-67
2022/11/10 02:40:23;;;;;;;11.57;3.00;;;;;;;;;;6128275;19;19927;-66
2022/11/10 02:42:27;;;;;;;12.88;3.40;;;8.80;99.90;;;;;;6128061;19;19919;-66
2022/11/10 02:44:31;;;;;;;10.18;3.25;;;8.70;99.90;;;;;;6127850;19;19937;-66
2022/11/10 02:46:36;;;;;;;7.25;3.08;;;8.50;99.90;;;;;;6130453;19;19919;-66
2022/11/10 02:48:40;;;;;;;7.60;3.20;;;;;;;;;;6127809;19;19945;-66
2022/11/10 02:50:44;;;;;;;12.30;3.53;;;8.50;99.90;;;;;;6127781;19;19950;-66
2022/11/10 02:52:48;;;;;;;10.77;3.53;;;;;;;;;;6128182;19;20042;-67
2022/11/10 02:54:55;;;;;;;11.50;3.30;;;8.40;99.90;;;;;;6122071;19;20010;-66
2022/11/10 02:57:01;;;;;;;5.75;3.42;;;8.50;99.90;;;;;;6126834;19;19927;-67
2022/11/10 02:59:05;;;;;;;11.07;3.63;;;;;;;;;;6130641;19;19982;-67
2022/11/10 03:01:09;;;;;;;11.02;3.60;;;8.60;99.90;;;;;;6130794;19;19942;-67
2022/11/10 03:03:13;;;;;;;13.73;3.47;;;8.60;99.90;;;;;;6127579;19;19938;-67
2022/11/10 03:05:17;;;;;;;10.15;3.50;;;;;;;;;;6127495;19;19918;-67
2022/11/10 03:07:21;;;;;;;8.40;3.40;;;8.40;99.90;;;;;;6127344;19;19934;-66
2022/11/10 03:09:25;;;;;;;10.20;3.33;;;;;;;;;;6130922;19;19924;-66
2022/11/10 03:11:32;;;;;;;11.55;3.50;;;8.40;99.90;;;;;;6127229;19;20337;-66
2022/11/10 03:13:35;;;;;;;10.40;3.70;;;8.50;99.90;;;;;;6125689;19;19950;-66
2022/11/10 03:15:39;;;;;;;10.75;3.53;;;8.20;99.90;;;;;;6127760;19;19939;-66
2022/11/10 03:17:43;;;;;;;12.25;3.60;;;8.40;99.90;;;;;;6128548;19;19919;-66
2022/11/10 03:19:48;;;;;;;8.52;3.47;;;8.60;99.90;;;;;;6126156;19;19961;-66
2022/11/10 03:21:51;;;;;;;7.95;3.22;;;8.40;99.90;;;;;;6126344;19;19930;-66
2022/11/10 03:23:55;;;;;;;14.10;3.95;;;8.50;99.90;;;;;;6127093;19;19919;-66
2022/11/10 03:25:59;;;;;;;13.43;3.97;;;8.80;99.90;;;;;;6129056;19;20344;-66
2022/11/10 03:28:06;;;;;;;10.63;3.03;;;8.50;99.90;;;;;;6127343;19;19946;-66
2022/11/10 03:30:11;;;;;;;7.72;2.97;;;8.30;99.90;;;;;;6125957;19;19915;-66
2022/11/10 03:32:15;;;;;;;7.95;3.58;;;8.40;99.90;;;;;;6128819;19;19915;-66
2022/11/10 03:34:18;;;;;;;10.23;4.82;;;8.30;99.90;;;;;;6127289;19;19937;-66
2022/11/10 03:36:22;;;;;;;10.75;3.50;;;8.30;99.90;;;;;;6126749;19;19907;-66
2022/11/10 03:38:26;;;;;;;12.02;3.65;;;8.40;99.90;;;;;;6126921;19;19919;-66
2022/11/10 03:40:30;;;;;;;12.43;3.85;;;8.60;99.90;;;;;;6126638;19;19915;-66
2022/11/10 03:42:34;;;;;;;9.80;3.42;;;;;;;;;;6128283;19;19919;-66
2022/11/10 03:44:41;;;;;;;7.18;3.20;;;8.40;99.90;;;;;;6128152;19;20020;-66
2022/11/10 03:46:45;;;;;;;8.60;2.97;;;8.60;99.90;;;;;;6126171;19;19923;-66
2022/11/10 03:48:48;;;;;;;9.73;3.28;;;7.90;99.90;;;;;;6127127;19;19918;-67
2022/11/10 03:50:52;;;;;;;8.52;3.33;;;8.50;99.90;;;;;;6126284;19;19918;-66
2022/11/10 03:52:56;;;;;;;11.20;3.33;;;8.40;99.90;;;;;;6126119;19;19907;-66
2022/11/10 03:55:00;;;;;;;7.80;2.95;;;8.30;99.90;;;;;;6126183;19;19919;-66
2022/11/10 03:57:05;;;;;;;8.98;2.45;;;8.60;99.90;;;;;;6125973;19;19925;-66
2022/11/10 03:59:09;;;;;;;9.63;3.20;;;8.20;99.90;;;;;;6127154;19;19919;-66
2022/11/10 04:01:15;;;;;;;14.32;3.67;;;8.30;99.90;;;;;;6126018;19;19914;-66
2022/11/10 04:03:19;;;;;;;8.55;3.58;;;8.50;99.90;;;;;;6124359;19;20474;-66
2022/11/10 04:09:55;;;;;;;9.95;4.15;;;8.10;99.90;;;;;;6125858;19;19919;-66
2022/11/10 04:16:35;;;;;;;11.90;4.05;;;8.40;99.90;;;;;;6127851;19;19915;-66
2022/11/10 04:18:39;;;;;;;10.38;3.10;;;8.00;99.90;;;;;;6125317;19;19919;-66
2022/11/10 04:20:43;;;;;;;16.92;3.50;;;8.50;99.90;;;;;;6125399;19;19918;-66
2022/11/10 04:25:03;;;;;;;12.18;3.05;;;8.20;99.90;;;;;;6125315;19;19914;-65
2022/11/10 04:27:07;;;;;;;12.82;4.15;;;8.20;99.90;;;;;;6125236;19;19910;-67
2022/11/10 04:29:12;;;;;;;11.10;3.75;;;8.30;99.90;;;;;;6131044;19;19938;-66
2022/11/10 04:31:17;;;;;;;14.80;3.58;;;8.40;99.90;;;;;;6129243;19;19910;-67
2022/11/10 04:33:23;;;;;;;8.10;3.13;;;7.80;99.90;;;;;;6132799;19;19921;-67
2022/11/10 04:35:27;;;;;;;7.70;3.00;;;8.20;99.90;;;;;;6133972;19;20346;-66
2022/11/10 04:37:31;;;;;;;11.10;3.50;;;;;;;;;;6131969;19;19918;-66
2022/11/10 04:39:35;;;;;;;9.10;3.50;;;8.20;99.90;;;;;;6130726;19;20320;-66
2022/11/10 04:41:39;;;;;;;12.38;4.68;;;8.30;99.90;;;;;;6130882;19;19942;-66
2022/11/10 04:43:44;;;;;;;10.65;3.72;;;8.30;99.90;;;;;;6131752;19;19970;-66
2022/11/10 04:45:48;;;;;;;11.35;3.67;;;8.10;99.90;;;;;;6131128;19;19942;-66
2022/11/10 04:47:51;;;;;;;15.15;3.83;;;8.20;99.90;;;;;;6131921;19;19954;-66
2022/11/10 04:49:58;;;;;;;10.05;3.53;;;8.60;99.90;;;;;;6129804;19;20381;-67
2022/11/10 04:52:02;;;;;;;18.67;3.35;;;8.60;99.90;;;;;;6131609;19;19919;-67
2022/11/10 04:54:07;;;;;;;13.98;3.85;;;8.40;99.90;;;;;;6130638;19;19919;-66
2022/11/10 04:56:15;;;;;;;12.13;3.63;;;8.40;99.90;;;;;;6132343;19;19922;-66
2022/11/10 04:58:19;;;;;;;13.63;4.43;;;8.20;99.90;;;;;;6131460;19;19919;-65
2022/11/10 05:00:24;;;;;;;11.13;4.65;;;8.40;99.90;;;;;;6129818;19;20110;-66
2022/11/10 05:02:28;;;;;;;14.63;4.30;;;8.40;99.90;;;;;;6130593;19;20336;-66
2022/11/10 05:04:32;;;;;;;13.38;4.13;;;;;;;;;;6130261;19;19922;-66
2022/11/10 05:06:38;;;;;;;10.20;4.03;;;8.40;99.90;;;;;;6130352;19;20284;-66
2022/11/10 05:08:43;;;;;;;11.70;4.60;;;8.50;99.90;;;;;;6130209;19;19914;-67
2022/11/10 05:10:47;;;;;;;15.40;4.07;;;8.30;99.90;;;;;;6130273;19;19937;-67
2022/11/10 05:12:51;;;;;;;15.25;4.22;;;8.20;99.90;;;;;;6129831;19;19918;-67
2022/11/10 05:14:55;;;;;;;12.63;5.10;;;;;;;;;;6130498;19;19918;-67
2022/11/10 05:16:59;;;;;;;13.98;4.25;;;8.40;99.90;;;;;;6129874;19;19938;-67
2022/11/10 05:19:03;;;;;;;13.88;4.70;;;8.10;99.90;;;;;;6131227;19;20334;-66
2022/11/10 05:21:07;;;;;;;10.43;4.70;;;8.40;99.90;;;;;;6129477;19;19918;-67
2022/11/10 05:25:29;;;;;;;11.73;5.00;;;8.50;99.90;;;;;;6133178;19;19946;-67
2022/11/10 05:27:33;;;;;;;16.23;5.20;;;8.10;99.90;;;;;;6129967;19;19919;-66
2022/11/10 05:29:37;;;;;;;15.48;5.15;;;;;;;;;;6129565;19;19915;-67
2022/11/10 05:31:41;;;;;;;12.20;5.35;;;8.80;99.90;;;;;;6128373;19;19954;-67
2022/11/10 05:33:45;;;;;;;16.35;4.88;;;8.50;99.90;;;;;;6129411;19;20375;-67
2022/11/10 05:35:51;;;;;;;17.40;5.78;;;8.40;99.90;;;;;;6131619;19;19942;-67
2022/11/10 05:37:54;;;;;;;11.43;5.28;;;8.20;99.90;;;;;;6127143;19;19918;-67
2022/11/10 05:40:01;;;;;;;15.25;5.00;;;8.40;99.90;;;;;;6129560;19;20357;-67
2022/11/10 05:42:05;;;;;;;14.15;4.47;;;8.30;99.90;;;;;;6130699;19;20050;-68
2022/11/10 05:44:09;;;;;;;13.82;5.65;;;8.70;99.90;;;;;;6129490;19;19934;-67
2022/11/10 05:46:13;;;;;;;12.93;4.90;;;8.60;99.90;;;;;;6129464;19;19911;-67
2022/11/10 05:48:17;;;;;;;15.07;5.10;;;;;;;;;;6129169;19;20336;-67
2022/11/10 05:50:22;;;;;;;16.75;5.15;;;8.60;99.90;;;;;;6131209;19;19986;-67
2022/11/10 05:52:26;;;;;;;13.50;5.50;;;8.30;99.90;;;;;;6127946;19;20343;-68
2022/11/10 05:54:30;;;;;;;18.98;4.82;;;8.50;99.90;;;;;;6128963;19;19942;-67
2022/11/10 05:56:36;;;;;;;15.18;5.45;;;8.70;99.90;;;;;;6129093;19;19943;-67
2022/11/10 05:58:41;;;;;;;15.05;5.38;;;8.60;99.90;;;;;;6128757;19;19913;-65
2022/11/10 06:00:45;;;;;;;17.90;5.07;;;8.70;99.90;;;;;;6131955;19;19919;-66
2022/11/10 06:02:58;;;;;;;15.75;5.30;;;8.20;99.90;;;;;;6128244;19;19925;-66
2022/11/10 06:05:02;;;;;;;16.58;4.97;;;;;;;;;;6129281;19;19914;-66
2022/11/10 06:07:06;;;;;;;12.43;4.97;;;8.70;99.90;;;;;;6126702;19;20018;-67
2022/11/10 06:09:10;;;;;;;14.75;5.68;;;8.70;99.90;;;;;;6129247;19;19915;-66
2022/11/10 06:11:15;;;;;;;13.50;5.10;;;8.70;99.90;;;;;;6128869;19;19922;-66
2022/11/10 06:13:21;;;;;;;15.10;5.63;;;8.50;99.90;;;;;;6128866;19;19922;-66
2022/11/10 06:15:26;;;;;;;13.00;4.68;;;8.40;99.90;;;;;;6130592;19;19914;-66
2022/11/10 06:17:30;;;;;;;12.75;4.68;;;8.00;99.90;;;;;;6130567;19;19914;-66
2022/11/10 06:19:33;;;;;;;16.00;5.45;;;8.60;99.90;;;;;;6128908;19;19918;-66
2022/11/10 06:21:37;;;;;;;14.70;5.28;;;8.80;99.90;;;;;;6131072;19;19926;-66
2022/11/10 06:23:41;;;;;;;13.00;5.95;;;8.40;99.90;;;;;;6127192;19;20518;-67
2022/11/10 06:25:46;;;;;;;12.38;4.85;;;;;;;;;;6127653;19;20347;-66
2022/11/10 06:27:50;;;;;;;17.13;5.97;;;8.50;99.90;;;;;;6128425;19;19919;-67
2022/11/10 06:29:56;;;;;;;16.15;5.47;;;8.50;99.90;;;;;;6128416;19;20336;-66
2022/11/10 06:32:00;;;;;;;11.57;4.70;;;8.50;99.90;;;;;;6128220;19;19930;-66
2022/11/10 06:34:04;;;;;;;18.00;5.55;;;8.70;99.90;;;;;;6125556;19;20328;-66
2022/11/10 06:36:08;;;;;;;21.15;5.45;;;8.60;99.90;;;;;;6131065;19;19923;-66
2022/11/10 06:38:13;;;;;;;13.15;5.18;;;8.10;99.90;;;;;;6126340;19;19942;-67
2022/11/10 06:40:17;;;;;;;16.33;5.75;;;8.40;99.90;;;;;;6128648;19;19918;-67
2022/11/10 06:42:21;;;;;;;16.85;5.80;;;8.40;99.90;;;;;;6128744;19;19946;-67
2022/11/10 06:44:25;;;;;;;13.93;4.30;;;;;;;;;;6123963;19;19942;-67
2022/11/10 06:46:31;;;;;;;15.50;5.00;;;8.40;99.90;;;;;;6126071;19;19922;-66
2022/11/10 06:48:35;;;;;;;10.80;5.07;;;8.40;99.90;;;;;;6127113;19;19927;-66
2022/11/10 06:50:39;;;;;;;18.95;5.43;;;;;;;;;;6127764;19;19938;-69
2022/11/10 06:52:43;;;;;;;14.57;5.63;;;8.40;99.90;;;;;;6127702;19;19919;-70
2022/11/10 06:54:47;;;;;;;18.02;5.70;;;8.80;99.90;;;;;;6128603;19;19919;-69
2022/11/10 06:56:51;;;;;;;16.10;5.50;;;;;;;;;;6127328;19;20340;-71
2022/11/10 06:58:56;;;;;;;17.83;5.43;;;;;;;;;;6130059;19;20268;-71
2022/11/10 07:01:01;;;;;;;14.60;5.13;;;8.90;99.90;;;;;;6127451;19;19919;-71
2022/11/10 07:03:11;;;;;;;13.98;5.53;;;8.40;99.90;;;;;;6126018;19;20014;-74
2022/11/10 07:05:17;;;;;;;14.77;4.75;;;;;;;;;;6128794;19;20342;-72
2022/11/10 07:07:21;;;;;;;15.32;6.18;;;;;;;;;;6129193;19;19927;-68
2022/11/10 07:09:25;;;;;;;17.58;6.07;;;8.50;99.90;;;;;;6127622;19;19922;-66
2022/11/10 07:11:29;;;;;;;14.73;5.97;;;8.60;99.90;;;;;;6130880;19;19929;-74
2022/11/10 07:13:33;;;;;;;18.13;5.50;;;8.80;99.90;;;;;;6127640;19;19940;-73
2022/11/10 07:15:37;;;;;;;15.65;6.38;;;8.70;99.90;;;;;;6127708;19;19925;-69
2022/11/10 07:17:42;;;;;;;16.83;6.05;;;8.80;99.90;;;;;;6127905;19;20301;-68
2022/11/10 07:19:48;;;;;;;19.35;6.07;;;8.80;99.90;;;;;;6126312;19;19922;-67
2022/11/10 07:21:52;;;;;;;15.82;6.28;;;8.80;99.90;;;;;;6124449;19;19915;-67
2022/11/10 07:23:56;;;;;;;16.27;6.18;;;8.70;99.90;;;;;;6124673;19;19942;-68
2022/11/10 07:26:01;;;;;;;19.42;6.07;;;8.80;99.90;;;;;;6126806;19;20308;-67
2022/11/10 07:28:09;;;;;;;19.40;5.85;;;8.80;99.90;;;;;;6125625;19;19946;-67
2022/11/10 07:30:14;;;;;;;16.55;5.50;;;8.80;99.90;;;;;;6127022;19;19942;-68
2022/11/10 07:32:18;;;;;;;14.07;5.20;;;8.80;99.90;;;;;;6129064;19;19915;-68
2022/11/10 07:34:22;;;;;;;12.95;5.57;;;8.90;99.90;;;;;;6126577;19;19923;-67
2022/11/10 07:36:28;;;;;;;19.02;5.97;;;8.40;99.90;;;;;;6124200;19;20552;-65
2022/11/10 07:38:32;;;;;;;17.30;5.40;;;;;;;;;;6124674;19;20340;-66
2022/11/10 07:40:37;;;;;;;15.73;6.25;;;8.60;99.90;;;;;;6124112;19;19915;-65
2022/11/10 07:42:41;;;;;;;14.38;5.78;;;9.10;99.90;;;;;;6122142;19;19942;-67
2022/11/10 07:44:45;;;;;;;13.95;6.13;;;;;;;;;;6120014;19;19936;-66
2022/11/10 07:46:49;;;;;;;14.90;6.55;;;8.80;99.90;;;;;;6126477;19;20336;-66
2022/11/10 07:48:53;;;;;;;14.13;5.28;;;;;;;;;;6126240;19;20343;-66
2022/11/10 07:50:57;;;;;;;15.75;5.53;;;8.90;99.90;;;;;;6127607;19;19934;-66
2022/11/10 07:53:09;;;;;;;16.60;5.70;;;9.00;99.90;;;;;;6123472;19;20312;-67
2022/11/10 07:55:13;;;;;;;15.32;5.05;;;8.80;99.90;;;;;;6125191;19;19922;-66
2022/11/10 07:57:17;;;;;;;17.45;6.32;;;8.90;99.90;;;;;;6125291;19;19922;-67
2022/11/10 07:59:21;;;;;;;14.95;5.43;;;9.00;99.90;;;;;;6127935;19;20299;-66
2022/11/10 08:01:25;;;;;;;9.15;4.78;;;;;;;;;;6126279;19;19915;-66
2022/11/10 08:03:29;;;;;;;13.32;5.68;;;;;;;;;;6131175;19;19919;-67
2022/11/10 08:05:34;;;;;;;12.55;5.03;;;8.90;99.90;;;;;;6131314;19;19910;-66
2022/11/10 08:07:39;;;;;;;14.48;4.97;;;8.90;99.90;;;;;;6132060;19;19938;-66
2022/11/10 08:09:46;;;;;;;11.93;5.53;;;8.70;99.90;;;;;;6133872;19;19926;-65
2022/11/10 08:11:50;;;;;;;18.35;5.65;;;9.30;99.90;;;;;;6133279;19;19956;-66
2022/11/10 08:13:54;;;;;;;14.27;7.00;;;8.90;99.90;;;;;;6130197;19;20578;-66
2022/11/10 08:16:00;;;;;;;15.70;5.40;;;8.80;99.90;;;;;;6131512;19;19918;-66
2022/11/10 08:18:06;;;;;;;18.15;5.68;;;9.00;99.90;;;;;;6131514;19;19925;-66
2022/11/10 08:20:11;;;;;;;18.50;6.47;;;9.60;99.90;;;;;;6131634;19;19945;-66
2022/11/10 08:22:15;;;;;;;21.35;6.45;;;9.20;99.90;;;;;;6132881;19;19927;-66
2022/11/10 08:24:19;;;;;;;12.55;5.40;;;9.30;99.90;;;;;;6129287;19;20241;-65
2022/11/10 08:26:25;;;;;;;16.70;6.78;;;9.20;99.90;;;;;;6130908;19;19919;-66
2022/11/10 08:28:30;;;;;;;16.80;5.45;;;8.80;99.90;;;;;;6130592;19;19926;-65
2022/11/10 08:30:34;;;;;;;13.43;4.75;;;9.30;99.90;;;;;;6129550;19;19939;-67
2022/11/10 08:32:38;;;;;;;18.85;6.25;;;9.50;99.90;;;;;;6133093;19;19923;-67
2022/11/10 08:34:42;;;;;;;16.60;5.32;;;;;;;;;;6133429;19;19918;-66
2022/11/10 08:36:46;;;;;;;15.13;5.05;;;9.40;99.90;;;;;;6131507;19;19915;-67
2022/11/10 08:38:50;;;;;;;15.35;6.05;;;;;;;;;;6128995;19;19918;-66
2022/11/10 08:40:57;;;;;;;16.40;5.65;;;9.10;99.90;;;;;;6129032;19;19923;-67
2022/11/10 08:43:06;;;;;;;17.50;5.38;;;9.30;99.90;;;;;;6129857;19;19917;-68
2022/11/10 08:45:11;;;;;;;19.00;5.78;;;9.70;99.90;;;;;;6127613;19;19927;-66
2022/11/10 08:47:14;;;;;;;17.90;5.82;;;9.20;99.90;;;;;;6128363;19;19919;-66
2022/11/10 08:49:18;;;;;;;16.58;6.72;;;9.60;99.90;;;;;;6130323;19;19918;-67
2022/11/10 08:51:23;;;;;;;18.45;5.95;;;9.80;99.90;;;;;;6130094;19;20313;-66
2022/11/10 08:53:27;;;;;;;16.48;5.70;;;;;;;;;;6132361;19;19922;-67
2022/11/10 08:55:31;;;;;;;15.23;6.13;;;9.70;99.90;;;;;;6129856;19;20332;-65
2022/11/10 08:57:34;;;;;;;18.05;4.75;;;9.70;99.90;;;;;;6127589;19;19926;-67
2022/11/10 08:59:42;;;;;;;9.88;5.38;;;9.90;99.90;;;;;;6129931;19;20532;-67
2022/11/10 09:01:45;;;;;;;14.63;5.78;;;9.50;99.90;;;;;;6130142;19;19915;-67
2022/11/10 09:03:49;;;;;;;17.42;6.03;;;9.70;99.90;;;;;;6128271;19;20359;-68
2022/11/10 09:05:54;;;;;;;19.60;6.25;;;9.60;99.90;;;;;;6132595;19;20007;-67
2022/11/10 09:07:58;;;;;;;17.75;5.40;;;9.80;99.90;;;;;;6130696;19;19925;-67
2022/11/10 09:10:02;;;;;;;18.08;6.10;;;;;;;;;;6128170;19;19935;-67
2022/11/10 09:12:07;;;;;;;20.52;7.00;;;9.90;99.90;;;;;;6128982;19;20371;-67
2022/11/10 09:14:11;;;;;;;18.42;5.93;;;10.10;99.90;;;;;;6130085;19;19919;-67
2022/11/10 09:16:18;;;;;;;14.63;6.03;;;9.70;99.90;;;;;;6125456;19;19923;-67
2022/11/10 09:18:22;;;;;;;13.20;5.65;;;9.90;99.90;;;;;;6128075;19;19916;-67
2022/11/10 09:20:26;;;;;;;16.73;5.25;;;10.00;99.90;;;;;;6130003;19;20351;-67
2022/11/10 09:22:30;;;;;;;14.10;6.38;;;9.60;99.90;;;;;;6119675;19;19918;-67
2022/11/10 09:24:34;;;;;;;16.83;6.72;;;9.70;99.90;;;;;;6121207;19;20300;-68
2022/11/10 09:26:38;;;;;;;12.50;5.32;;;10.30;99.90;;;;;;6128819;19;19927;-66
2022/11/10 09:28:42;;;;;;;14.52;5.72;;;10.20;99.90;;;;;;6129616;19;19923;-66
2022/11/10 09:30:48;;;;;;;19.00;5.75;;;10.20;99.90;;;;;;6129304;19;19939;-66
2022/11/10 09:32:58;;;;;;;19.15;6.97;;;10.30;99.90;;;;;;6129193;19;19919;-66
2022/11/10 09:35:02;;;;;;;15.05;6.30;;;10.30;99.90;;;;;;6129257;19;19918;-66
2022/11/10 09:37:06;;;;;;;17.23;6.00;;;;;;;;;;6132686;19;19911;-66
2022/11/10 09:39:10;;;;;;;16.52;6.03;;;10.70;99.90;;;;;;6128396;19;19929;-67
2022/11/10 09:41:16;;;;;;;14.43;5.57;;;10.90;99.90;;;;;;6129461;19;19953;-67
2022/11/10 09:43:28;;;;;;;17.17;6.05;;;10.30;99.90;;;;;;6129004;19;19926;-66
2022/11/10 09:45:36;;;;;;;16.95;5.55;;;10.70;99.90;;;;;;6126963;19;20441;-66
2022/11/10 09:47:48;;;;;;;13.77;5.55;;;11.30;99.90;;;;;;6128909;19;20269;-66
2022/11/10 09:49:59;;;;;;;19.58;5.90;;;10.80;99.90;;;;;;6131190;19;19926;-66
2022/11/10 09:52:05;;;;;;;16.65;5.13;;;10.60;99.90;;;;;;6128787;19;20344;-66
2022/11/10 09:54:26;;;;;;;13.85;5.50;;;10.70;99.90;;;;;;6128478;19;19911;-67
2022/11/10 09:56:34;;;;;;;11.88;5.15;;;11.10;99.90;;;;;;6129906;19;19946;-66
2022/11/10 09:58:42;;;;;;;16.23;5.30;;;11.50;99.90;;;;;;6127318;19;19921;-66
2022/11/10 10:00:54;;;;;;;15.45;4.97;;;11.40;99.90;;;;;;6128531;19;19942;-65
2022/11/10 10:03:02;;;;;;;17.58;5.35;;;11.40;99.90;;;;;;6128741;19;19919;-66
2022/11/10 10:05:46;;;;;;;18.48;5.35;;;11.40;99.90;;;;;;6127467;19;20244;-66
2022/11/10 10:07:58;;;;;;;13.65;5.20;;;11.10;99.90;;;;;;6128735;19;20415;-66
2022/11/10 10:10:06;;;;;;;17.77;5.53;;;11.40;99.90;;;;;;6129477;19;19930;-66
2022/11/10 10:12:23;;;;;;;10.48;4.88;;;11.80;99.90;;;;;;6130034;19;19911;-67
2022/11/10 10:14:42;;;;;;;13.55;4.32;;;11.70;99.90;;;;;;6129119;19;19915;-67
2022/11/10 10:16:53;;;;;;;12.95;4.75;;;12.10;99.90;;;;;;6128650;19;19918;-66
2022/11/10 10:19:06;;;;;;;15.95;5.10;;;11.00;99.90;;;;;;6129804;19;19923;-67
2022/11/10 10:21:45;;;;;;;11.10;5.18;;;11.20;99.90;;;;;;6128269;19;19923;-66
2022/11/10 10:23:53;;;;;;;8.55;4.40;;;11.60;99.90;;;;;;6128558;19;19911;-67
2022/11/10 10:25:57;;;;;;;12.93;5.15;;;11.10;99.90;;;;;;6128833;19;19958;-66
2022/11/10 10:28:07;;;;;;;11.68;4.50;;;11.90;99.90;;;;;;6126984;19;19922;-66
2022/11/10 10:30:16;;;;;;;15.80;4.90;;;11.80;99.90;;;;;;6131591;19;19938;-66
2022/11/10 10:32:21;;;;;;;11.30;3.97;;;11.70;99.90;;;;;;6123969;19;20372;-66
2022/11/10 10:34:29;;;;;;;17.02;4.90;;;11.70;99.90;;;;;;6130048;19;20268;-67
2022/11/10 10:36:33;;;;;;;14.50;4.60;;;11.90;99.90;;;;;;6127949;19;20362;-68
2022/11/10 10:38:41;;;;;;;12.63;3.70;;;11.80;99.90;;;;;;6127122;19;19935;-68
2022/11/10 10:40:48;;;;;;;19.48;4.28;;;12.40;99.90;;;;;;6129437;19;19918;-67
2022/11/10 10:42:53;;;;;;;9.63;3.95;;;11.90;99.90;;;;;;6126104;19;19986;-67
2022/11/10 10:45:16;;;;;;;17.23;5.15;;;11.70;99.90;;;;;;6127121;19;19917;-68
2022/11/10 10:47:19;;;;;;;15.00;3.92;;;12.00;99.90;;;;;;6127800;19;20366;-67
2022/11/10 10:49:25;;;;;;;12.77;3.80;;;11.70;99.90;;;;;;6129930;19;19942;-67
2022/11/10 10:51:31;;;;;;;12.60;4.18;;;12.10;99.90;;;;;;6127739;19;19911;-67
2022/11/10 10:53:49;;;;;;;10.40;3.92;;;11.80;99.90;;;;;;6127716;19;19953;-67
2022/11/10 10:56:00;;;;;;;18.35;4.05;;;12.10;99.90;;;;;;6126899;19;19915;-66
2022/11/10 10:58:06;;;;;;;16.88;4.00;;;12.20;99.90;;;;;;6125683;19;19914;-66
2022/11/10 11:00:21;;;;;;;16.10;4.10;;;11.80;99.90;;;;;;6127065;19;20383;-66
2022/11/10 11:02:29;;;;;;;14.15;3.65;;;11.80;99.90;;;;;;6128050;19;19942;-67
2022/11/10 11:04:36;;;;;;;14.93;4.93;;;11.70;99.90;;;;;;6127735;19;19958;-70
2022/11/10 11:06:39;;;;;;;20.50;5.43;;;11.90;99.90;;;;;;6128638;19;19918;-68
2022/11/10 11:08:59;;;;;;;11.75;4.10;;;12.10;99.90;;;;;;6126255;19;19922;-67
2022/11/10 11:11:10;;;;;;;12.50;4.07;;;12.70;99.90;;;;;;6129715;19;19918;-67
2022/11/10 11:13:16;;;;;;;19.75;5.32;;;12.40;99.90;;;;;;6128015;19;19933;-66
2022/11/10 11:15:27;;;;;;;13.75;3.95;;;12.70;99.90;;;;;;6127246;19;19918;-67
2022/11/10 11:17:30;;;;;;;13.80;4.72;;;12.80;99.90;;;;;;6129494;19;19923;-68
2022/11/10 11:19:36;;;;;;;14.18;4.32;;;12.70;99.90;;;;;;6126883;19;19942;-66